F/V Le Lespenhy — FGDY — position and weather

sailwx.info

Track history (hours):
 
Tides and Currents Weather Stations Pressure Air Temp Water Temp Dewpoint Dewpoint Depression Visibility Wind Speed Wind Dir Waves Ship Positions

F/V Le Lespenhy

Last reported at 2018-Feb-23 23:29 UTC. Time now 2018-Feb-24 08:32 UTC.
Position N 47°50' W 004°10'.

Length 15 m.

Type: Fishing. MMSI: 228853000.

Date/timePositionNaut miles runAvg speedWind from/ knotsBaromVisibWave heightAir tempDewpointWater temp
2018-Feb-23 23:29N 47°50' W 004°10'3 5.5
2018-Feb-23 22:58N 47°49' W 004°06'4 8.0
2018-Feb-23 22:27N 47°49' W 003°60'19 2.4
2018-Feb-23 14:25N 47°31' W 003°51'1 3.6
2018-Feb-23 14:00N 47°30' W 003°49'2 0.3
2018-Feb-23 07:08N 47°28' W 003°48'0 3.3
2018-Feb-23 06:59N 47°28' W 003°49'2 3.2
2018-Feb-23 06:26N 47°28' W 003°51'3 6.9
2018-Feb-23 06:00N 47°31' W 003°53'11 8.0
2018-Feb-23 04:38N 47°42' W 003°55'2 8.0
2018-Feb-23 04:21N 47°44' W 003°55'3 7.9
2018-Feb-23 03:58N 47°47' W 003°56'4 8.2
2018-Feb-23 03:29N 47°51' W 003°56'0 0.2
2018-Feb-23 01:40N 47°51' W 003°56'2 8.8
2018-Feb-23 01:28N 47°49' W 003°56'11 0.2
2018-Feb-21 05:06N 47°41' W 004°07'1 8.3
2018-Feb-21 04:58N 47°42' W 004°06'5 8.1
2018-Feb-21 04:21N 47°46' W 004°01'3 8.3
2018-Feb-21 03:59N 47°48' W 003°58'4 2.0
2018-Feb-21 01:55N 47°52' W 003°55'4 8.1
2018-Feb-21 01:29N 47°48' W 003°55'9 0.2
2018-Feb-19 05:01N 47°43' W 004°05'4 8.1
2018-Feb-19 04:29N 47°46' W 004°01'4 8.3
2018-Feb-19 04:00N 47°49' W 003°57'3 0.8
2018-Feb-19 00:31N 47°52' W 003°56'0 9.8
2018-Feb-19 00:30N 47°51' W 003°56'5 8.4
2018-Feb-18 23:55N 47°46' W 003°56'5 8.4
2018-Feb-18 23:18N 47°41' W 003°55'5 7.8
2018-Feb-18 22:38N 47°36' W 003°56'12 0.3
2018-Feb-17 05:23N 47°35' W 004°13'6 8.5
2018-Feb-17 04:38N 47°40' W 004°08'3 8.4
2018-Feb-17 04:14N 47°43' W 004°05'4 8.5
2018-Feb-17 03:46N 47°46' W 004°01'3 8.6
2018-Feb-17 03:27N 47°48' W 003°59'4 8.1
2018-Feb-17 03:00N 47°51' W 003°56'1 0.4
2018-Feb-17 01:36N 47°52' W 003°56'1 8.8
2018-Feb-17 01:30N 47°51' W 003°56'5 8.3
2018-Feb-17 00:56N 47°47' W 003°60'19 0.6
2018-Feb-15 17:51N 47°28' W 004°03'2 2.9
2018-Feb-15 17:11N 47°29' W 004°01'1 3.2
2018-Feb-15 16:59N 47°28' W 003°60'2 3.2
2018-Feb-15 16:22N 47°28' W 003°57'1 3.3
2018-Feb-15 15:59N 47°28' W 003°55'1 3.2
2018-Feb-15 15:30N 47°28' W 003°53'2 3.2
2018-Feb-15 14:59N 47°29' W 003°50'2 3.6
2018-Feb-15 14:30N 47°29' W 003°48'2 3.3
2018-Feb-15 14:00N 47°29' W 003°45'2 3.1
2018-Feb-15 13:30N 47°29' W 003°43'1 2.6
2018-Feb-15 13:00N 47°28' W 003°43'2 3.5
2018-Feb-15 12:29N 47°26' W 003°45'2 3.3
2018-Feb-15 12:01N 47°26' W 003°48'2 3.2
2018-Feb-15 11:29N 47°27' W 003°50'2 3.3
2018-Feb-15 10:58N 47°27' W 003°52'2 3.0
2018-Feb-15 10:20N 47°26' W 003°55'1 2.3
2018-Feb-15 09:53N 47°27' W 003°54'1 3.2
2018-Feb-15 09:31N 47°27' W 003°52'1 2.3
2018-Feb-15 09:00N 47°28' W 003°51'2 3.1
2018-Feb-15 08:30N 47°29' W 003°53'2 3.1
2018-Feb-15 08:00N 47°30' W 003°55'13 5.2
2018-Feb-15 05:34N 47°41' W 004°04'1 8.5
2018-Feb-15 05:25N 47°42' W 004°05'4 8.4
2018-Feb-15 04:58N 47°46' W 004°07'4 8.2
2018-Feb-15 04:30N 47°49' W 004°09'  
Track history (hours):
 
Tides and Currents Weather Stations Pressure Air Temp Water Temp Dewpoint Dewpoint Depression Visibility Wind Speed Wind Dir Waves Ship Positions

F/V Le Lespenhy

Last reported at 2018-Feb-23 23:29 UTC. Time now 2018-Feb-24 08:32 UTC.
Position N 47°50' W 004°10'.

Length 15 m.

Type: Fishing. MMSI: 228853000.

Date/timePositionNaut miles runAvg speedWind from/ knotsBaromVisibWave heightAir tempDewpointWater temp
2018-Feb-23 23:29N 47°50' W 004°10'3 5.5
2018-Feb-23 22:58N 47°49' W 004°06'4 8.0
2018-Feb-23 22:27N 47°49' W 003°60'19 2.4
2018-Feb-23 14:25N 47°31' W 003°51'1 3.6
2018-Feb-23 14:00N 47°30' W 003°49'2 0.3
2018-Feb-23 07:08N 47°28' W 003°48'0 3.3
2018-Feb-23 06:59N 47°28' W 003°49'2 3.2
2018-Feb-23 06:26N 47°28' W 003°51'3 6.9
2018-Feb-23 06:00N 47°31' W 003°53'11 8.0
2018-Feb-23 04:38N 47°42' W 003°55'2 8.0
2018-Feb-23 04:21N 47°44' W 003°55'3 7.9
2018-Feb-23 03:58N 47°47' W 003°56'4 8.2
2018-Feb-23 03:29N 47°51' W 003°56'0 0.2
2018-Feb-23 01:40N 47°51' W 003°56'2 8.8
2018-Feb-23 01:28N 47°49' W 003°56'11 0.2
2018-Feb-21 05:06N 47°41' W 004°07'1 8.3
2018-Feb-21 04:58N 47°42' W 004°06'5 8.1
2018-Feb-21 04:21N 47°46' W 004°01'3 8.3
2018-Feb-21 03:59N 47°48' W 003°58'4 2.0
2018-Feb-21 01:55N 47°52' W 003°55'4 8.1
2018-Feb-21 01:29N 47°48' W 003°55'9 0.2
2018-Feb-19 05:01N 47°43' W 004°05'4 8.1
2018-Feb-19 04:29N 47°46' W 004°01'4 8.3
2018-Feb-19 04:00N 47°49' W 003°57'3 0.8
2018-Feb-19 00:31N 47°52' W 003°56'0 9.8
2018-Feb-19 00:30N 47°51' W 003°56'5 8.4
2018-Feb-18 23:55N 47°46' W 003°56'5 8.4
2018-Feb-18 23:18N 47°41' W 003°55'5 7.8
2018-Feb-18 22:38N 47°36' W 003°56'12 0.3
2018-Feb-17 05:23N 47°35' W 004°13'6 8.5
2018-Feb-17 04:38N 47°40' W 004°08'3 8.4
2018-Feb-17 04:14N 47°43' W 004°05'4 8.5
2018-Feb-17 03:46N 47°46' W 004°01'3 8.6
2018-Feb-17 03:27N 47°48' W 003°59'4 8.1
2018-Feb-17 03:00N 47°51' W 003°56'1 0.4
2018-Feb-17 01:36N 47°52' W 003°56'1 8.8
2018-Feb-17 01:30N 47°51' W 003°56'5 8.3
2018-Feb-17 00:56N 47°47' W 003°60'19 0.6
2018-Feb-15 17:51N 47°28' W 004°03'2 2.9
2018-Feb-15 17:11N 47°29' W 004°01'1 3.2
2018-Feb-15 16:59N 47°28' W 003°60'2 3.2
2018-Feb-15 16:22N 47°28' W 003°57'1 3.3
2018-Feb-15 15:59N 47°28' W 003°55'1 3.2
2018-Feb-15 15:30N 47°28' W 003°53'2 3.2
2018-Feb-15 14:59N 47°29' W 003°50'2 3.6
2018-Feb-15 14:30N 47°29' W 003°48'2 3.3
2018-Feb-15 14:00N 47°29' W 003°45'2 3.1
2018-Feb-15 13:30N 47°29' W 003°43'1 2.6
2018-Feb-15 13:00N 47°28' W 003°43'2 3.5
2018-Feb-15 12:29N 47°26' W 003°45'2 3.3
2018-Feb-15 12:01N 47°26' W 003°48'2 3.2
2018-Feb-15 11:29N 47°27' W 003°50'2 3.3
2018-Feb-15 10:58N 47°27' W 003°52'2 3.0
2018-Feb-15 10:20N 47°26' W 003°55'1 2.3
2018-Feb-15 09:53N 47°27' W 003°54'1 3.2
2018-Feb-15 09:31N 47°27' W 003°52'1 2.3
2018-Feb-15 09:00N 47°28' W 003°51'2 3.1
2018-Feb-15 08:30N 47°29' W 003°53'2 3.1
2018-Feb-15 08:00N 47°30' W 003°55'13 5.2
2018-Feb-15 05:34N 47°41' W 004°04'1 8.5
2018-Feb-15 05:25N 47°42' W 004°05'4 8.4
2018-Feb-15 04:58N 47°46' W 004°07'4 8.2
2018-Feb-15 04:30N 47°49' W 004°09'  

Dump ship's entire track history